sensor_id;sensor_type;location;lat;lon;timestamp;temperature;humidity
3488;DHT22;38546;48.170;11.724;2024-01-15T00:01:10;0.50;99.90
3488;DHT22;38546;48.170;11.724;2024-01-15T00:03:41;0.60;99.90
3488;DHT22;38546;48.170;11.724;2024-01-15T00:06:12;0.60;99.90
3488;DHT22;38546;48.170;11.724;2024-01-15T00:08:45;0.80;99.90
3488;DHT22;38546;48.170;11.724;2024-01-15T00:11:25;0.80;99.90
3488;DHT22;38546;48.170;11.724;2024-01-15T00:14:01;0.80;99.90
3488;DHT22;38546;48.170;11.724;2024-01-15T00:16:33;0.90;99.90
3488;DHT22;38546;48.170;11.724;2024-01-15T00:19:04;0.90;99.90
3488;DHT22;38546;48.170;11.724;2024-01-15T00:21:35;1.00;99.90
3488;DHT22;38546;48.170;11.724;2024-01-15T00:24:05;1.00;99.90
3488;DHT22;38546;48.170;11.724;2024-01-15T00:26:36;0.90;99.90
3488;DHT22;38546;48.170;11.724;2024-01-15T00:29:08;1.00;99.90
3488;DHT22;38546;48.170;11.724;2024-01-15T00:31:39;1.00;99.90
3488;DHT22;38546;48.170;11.724;2024-01-15T00:34:10;1.00;99.90
3488;DHT22;38546;48.170;11.724;2024-01-15T00:36:41;1.00;99.90
3488;DHT22;38546;48.170;11.724;2024-01-15T00:39:11;1.00;99.90
3488;DHT22;38546;48.170;11.724;2024-01-15T00:41:42;1.00;99.90
3488;DHT22;38546;48.170;11.724;2024-01-15T00:44:13;1.00;99.90
3488;DHT22;38546;48.170;11.724;2024-01-15T00:46:44;1.00;99.90
3488;DHT22;38546;48.170;11.724;2024-01-15T00:49:16;1.00;99.90
3488;DHT22;38546;48.170;11.724;2024-01-15T00:51:47;0.90;99.90
3488;DHT22;38546;48.170;11.724;2024-01-15T00:54:18;0.90;99.90
3488;DHT22;38546;48.170;11.724;2024-01-15T00:56:49;0.90;99.90
3488;DHT22;38546;48.170;11.724;2024-01-15T00:59:22;0.90;99.90
3488;DHT22;38546;48.170;11.724;2024-01-15T01:01:53;0.80;99.90
3488;DHT22;38546;48.170;11.724;2024-01-15T01:04:23;0.70;99.90
3488;DHT22;38546;48.170;11.724;2024-01-15T01:06:54;0.60;99.90
3488;DHT22;38546;48.170;11.724;2024-01-15T01:09:25;0.50;99.90
3488;DHT22;38546;48.170;11.724;2024-01-15T01:11:56;0.30;99.90
3488;DHT22;38546;48.170;11.724;2024-01-15T01:14:27;0.10;99.90
3488;DHT22;38546;48.170;11.724;2024-01-15T01:16:57;0.00;99.90
3488;DHT22;38546;48.170;11.724;2024-01-15T01:19:28;0.10;99.90
3488;DHT22;38546;48.170;11.724;2024-01-15T01:21:59;-0.10;99.90
3488;DHT22;38546;48.170;11.724;2024-01-15T01:24:29;-0.10;99.90
3488;DHT22;38546;48.170;11.724;2024-01-15T01:27:00;-0.30;99.90
3488;DHT22;38546;48.170;11.724;2024-01-15T01:29:31;-0.20;99.90
3488;DHT22;38546;48.170;11.724;2024-01-15T01:32:01;-0.20;99.90
3488;DHT22;38546;48.170;11.724;2024-01-15T01:34:39;-0.10;99.90
3488;DHT22;38546;48.170;11.724;2024-01-15T01:37:12;-0.10;99.90
3488;DHT22;38546;48.170;11.724;2024-01-15T01:39:44;-0.20;99.90
3488;DHT22;38546;48.170;11.724;2024-01-15T01:42:18;-0.30;99.90
3488;DHT22;38546;48.170;11.724;2024-01-15T01:44:48;-0.20;99.90
3488;DHT22;38546;48.170;11.724;2024-01-15T01:47:19;-0.20;99.90
3488;DHT22;38546;48.170;11.724;2024-01-15T01:49:50;-0.20;99.90
3488;DHT22;38546;48.170;11.724;2024-01-15T01:52:21;-0.30;99.90
3488;DHT22;38546;48.170;11.724;2024-01-15T01:54:52;-0.30;99.90
3488;DHT22;38546;48.170;11.724;2024-01-15T01:57:23;-0.20;99.90
3488;DHT22;38546;48.170;11.724;2024-01-15T01:59:54;-0.30;99.90
3488;DHT22;38546;48.170;11.724;2024-01-15T02:02:25;-0.20;99.90
3488;DHT22;38546;48.170;11.724;2024-01-15T02:04:56;-0.20;99.90
3488;DHT22;38546;48.170;11.724;2024-01-15T02:07:27;-0.20;99.90
3488;DHT22;38546;48.170;11.724;2024-01-15T02:09:59;-0.20;99.90
3488;DHT22;38546;48.170;11.724;2024-01-15T02:12:30;-0.30;99.90
3488;DHT22;38546;48.170;11.724;2024-01-15T02:15:01;-0.30;99.90
3488;DHT22;38546;48.170;11.724;2024-01-15T02:17:32;-0.30;99.90
3488;DHT22;38546;48.170;11.724;2024-01-15T02:20:04;-0.40;99.90
3488;DHT22;38546;48.170;11.724;2024-01-15T02:22:38;-0.30;99.90
3488;DHT22;38546;48.170;11.724;2024-01-15T02:25:08;-0.40;99.90
3488;DHT22;38546;48.170;11.724;2024-01-15T02:27:39;-0.40;99.90
3488;DHT22;38546;48.170;11.724;2024-01-15T02:30:12;-0.40;99.90
3488;DHT22;38546;48.170;11.724;2024-01-15T02:32:43;-0.30;99.90
3488;DHT22;38546;48.170;11.724;2024-01-15T02:35:14;-0.40;99.90
3488;DHT22;38546;48.170;11.724;2024-01-15T02:37:44;-0.40;99.90
3488;DHT22;38546;48.170;11.724;2024-01-15T02:40:15;-0.60;99.90
3488;DHT22;38546;48.170;11.724;2024-01-15T02:42:49;-0.70;99.90
3488;DHT22;38546;48.170;11.724;2024-01-15T02:45:20;-0.70;99.90
3488;DHT22;38546;48.170;11.724;2024-01-15T02:47:52;-0.70;99.90
3488;DHT22;38546;48.170;11.724;2024-01-15T02:50:22;-0.70;99.90
3488;DHT22;38546;48.170;11.724;2024-01-15T02:52:53;-0.80;99.90
3488;DHT22;38546;48.170;11.724;2024-01-15T02:55:24;-0.70;99.90
3488;DHT22;38546;48.170;11.724;2024-01-15T02:57:54;-0.80;99.90
3488;DHT22;38546;48.170;11.724;2024-01-15T03:00:25;-0.80;99.90
3488;DHT22;38546;48.170;11.724;2024-01-15T03:02:56;-0.90;99.90
3488;DHT22;38546;48.170;11.724;2024-01-15T03:05:27;-1.00;99.90
3488;DHT22;38546;48.170;11.724;2024-01-15T03:07:57;-0.90;99.90
3488;DHT22;38546;48.170;11.724;2024-01-15T03:10:28;-0.80;99.90
3488;DHT22;38546;48.170;11.724;2024-01-15T03:12:58;-0.90;99.90
3488;DHT22;38546;48.170;11.724;2024-01-15T03:15:29;-0.90;99.90
3488;DHT22;38546;48.170;11.724;2024-01-15T03:18:00;-0.90;99.90
3488;DHT22;38546;48.170;11.724;2024-01-15T03:20:30;-0.90;99.90
3488;DHT22;38546;48.170;11.724;2024-01-15T03:23:01;-1.00;99.90
3488;DHT22;38546;48.170;11.724;2024-01-15T03:25:32;-0.90;99.90
3488;DHT22;38546;48.170;11.724;2024-01-15T03:28:05;-0.60;99.90
3488;DHT22;38546;48.170;11.724;2024-01-15T03:30:36;-0.60;99.90
3488;DHT22;38546;48.170;11.724;2024-01-15T03:33:06;-0.60;99.90
3488;DHT22;38546;48.170;11.724;2024-01-15T03:35:37;-0.50;99.90
3488;DHT22;38546;48.170;11.724;2024-01-15T03:38:08;-0.50;99.90
3488;DHT22;38546;48.170;11.724;2024-01-15T03:40:38;-0.60;99.90
3488;DHT22;38546;48.170;11.724;2024-01-15T03:43:11;-0.50;99.90
3488;DHT22;38546;48.170;11.724;2024-01-15T03:45:42;-0.50;99.90
3488;DHT22;38546;48.170;11.724;2024-01-15T03:48:13;-0.60;99.90
3488;DHT22;38546;48.170;11.724;2024-01-15T03:50:43;-0.50;99.90
3488;DHT22;38546;48.170;11.724;2024-01-15T03:53:17;-0.70;99.90
3488;DHT22;38546;48.170;11.724;2024-01-15T03:55:48;-0.50;99.90
3488;DHT22;38546;48.170;11.724;2024-01-15T03:58:19;-0.60;99.90
3488;DHT22;38546;48.170;11.724;2024-01-15T04:00:50;-0.90;99.90
3488;DHT22;38546;48.170;11.724;2024-01-15T04:03:21;-0.90;99.90
3488;DHT22;38546;48.170;11.724;2024-01-15T04:05:52;-0.90;99.90
3488;DHT22;38546;48.170;11.724;2024-01-15T04:08:22;-0.70;99.90
3488;DHT22;38546;48.170;11.724;2024-01-15T04:10:53;-0.90;99.90
3488;DHT22;38546;48.170;11.724;2024-01-15T04:13:24;-0.60;99.90
3488;DHT22;38546;48.170;11.724;2024-01-15T04:15:54;-0.70;99.90
3488;DHT22;38546;48.170;11.724;2024-01-15T04:18:25;-0.70;99.90
3488;DHT22;38546;48.170;11.724;2024-01-15T04:20:56;-0.70;99.90
3488;DHT22;38546;48.170;11.724;2024-01-15T04:23:28;-0.80;99.90
3488;DHT22;38546;48.170;11.724;2024-01-15T04:25:58;-0.70;99.90
3488;DHT22;38546;48.170;11.724;2024-01-15T04:28:29;-0.80;99.90
3488;DHT22;38546;48.170;11.724;2024-01-15T04:31:02;-0.60;99.90
3488;DHT22;38546;48.170;11.724;2024-01-15T04:33:33;-0.60;99.90
3488;DHT22;38546;48.170;11.724;2024-01-15T04:36:04;-0.60;99.90
3488;DHT22;38546;48.170;11.724;2024-01-15T04:38:38;-0.80;99.90
3488;DHT22;38546;48.170;11.724;2024-01-15T04:41:12;-0.80;99.90
3488;DHT22;38546;48.170;11.724;2024-01-15T04:43:43;-0.90;99.90
3488;DHT22;38546;48.170;11.724;2024-01-15T04:46:14;-0.90;99.90
3488;DHT22;38546;48.170;11.724;2024-01-15T04:48:45;-0.90;99.90
3488;DHT22;38546;48.170;11.724;2024-01-15T04:51:15;-0.90;99.90
3488;DHT22;38546;48.170;11.724;2024-01-15T04:53:46;-0.80;99.90
3488;DHT22;38546;48.170;11.724;2024-01-15T04:56:17;-0.70;99.90
3488;DHT22;38546;48.170;11.724;2024-01-15T04:58:48;-0.60;99.90
3488;DHT22;38546;48.170;11.724;2024-01-15T05:01:19;-0.60;99.90
3488;DHT22;38546;48.170;11.724;2024-01-15T05:03:49;-0.60;99.90
3488;DHT22;38546;48.170;11.724;2024-01-15T05:06:20;-0.70;99.90
3488;DHT22;38546;48.170;11.724;2024-01-15T05:08:51;-0.80;99.90
3488;DHT22;38546;48.170;11.724;2024-01-15T05:11:21;-0.70;99.90
3488;DHT22;38546;48.170;11.724;2024-01-15T05:13:52;-0.80;99.90
3488;DHT22;38546;48.170;11.724;2024-01-15T05:16:22;-0.80;99.90
3488;DHT22;38546;48.170;11.724;2024-01-15T05:18:54;-0.70;99.90
3488;DHT22;38546;48.170;11.724;2024-01-15T05:21:24;-0.70;99.90
3488;DHT22;38546;48.170;11.724;2024-01-15T05:23:55;-0.60;99.90
3488;DHT22;38546;48.170;11.724;2024-01-15T05:26:25;-0.60;99.90
3488;DHT22;38546;48.170;11.724;2024-01-15T05:28:56;-0.60;99.90
3488;DHT22;38546;48.170;11.724;2024-01-15T05:31:27;-0.50;99.90
3488;DHT22;38546;48.170;11.724;2024-01-15T05:33:57;-0.50;99.90
3488;DHT22;38546;48.170;11.724;2024-01-15T05:36:28;-0.60;99.90
3488;DHT22;38546;48.170;11.724;2024-01-15T05:38:59;-0.70;99.90
3488;DHT22;38546;48.170;11.724;2024-01-15T05:41:29;-0.60;99.90
3488;DHT22;38546;48.170;11.724;2024-01-15T05:44:00;-0.70;99.90
3488;DHT22;38546;48.170;11.724;2024-01-15T05:46:31;-0.70;99.90
3488;DHT22;38546;48.170;11.724;2024-01-15T05:49:01;-0.60;99.90
3488;DHT22;38546;48.170;11.724;2024-01-15T05:51:33;-0.50;99.90
3488;DHT22;38546;48.170;11.724;2024-01-15T05:54:04;-0.60;99.90
3488;DHT22;38546;48.170;11.724;2024-01-15T05:56:35;-0.40;99.90
3488;DHT22;38546;48.170;11.724;2024-01-15T05:59:05;-0.60;99.90
3488;DHT22;38546;48.170;11.724;2024-01-15T06:01:36;-0.60;99.90
3488;DHT22;38546;48.170;11.724;2024-01-15T06:04:08;-0.50;99.90
3488;DHT22;38546;48.170;11.724;2024-01-15T06:06:39;-0.60;99.90
3488;DHT22;38546;48.170;11.724;2024-01-15T06:09:09;-0.50;99.90
3488;DHT22;38546;48.170;11.724;2024-01-15T06:11:40;-0.60;99.90
3488;DHT22;38546;48.170;11.724;2024-01-15T06:14:11;-0.60;99.90
3488;DHT22;38546;48.170;11.724;2024-01-15T06:16:41;-0.60;99.90
3488;DHT22;38546;48.170;11.724;2024-01-15T06:19:12;-0.50;99.90
3488;DHT22;38546;48.170;11.724;2024-01-15T06:21:43;-0.50;99.90
3488;DHT22;38546;48.170;11.724;2024-01-15T06:24:13;-0.40;99.90
3488;DHT22;38546;48.170;11.724;2024-01-15T06:26:46;-0.50;99.90
3488;DHT22;38546;48.170;11.724;2024-01-15T06:29:17;-0.50;99.90
3488;DHT22;38546;48.170;11.724;2024-01-15T06:31:48;-0.50;99.90
3488;DHT22;38546;48.170;11.724;2024-01-15T06:34:19;-0.50;99.90
3488;DHT22;38546;48.170;11.724;2024-01-15T06:36:49;-0.60;99.90
3488;DHT22;38546;48.170;11.724;2024-01-15T06:39:20;-0.50;99.90
3488;DHT22;38546;48.170;11.724;2024-01-15T06:41:51;-0.50;99.90
3488;DHT22;38546;48.170;11.724;2024-01-15T06:44:21;-0.50;99.90
3488;DHT22;38546;48.170;11.724;2024-01-15T06:46:55;-0.60;99.90
3488;DHT22;38546;48.170;11.724;2024-01-15T06:49:28;-0.60;99.90
3488;DHT22;38546;48.170;11.724;2024-01-15T06:51:59;-0.50;99.90
3488;DHT22;38546;48.170;11.724;2024-01-15T06:54:30;-0.50;99.90
3488;DHT22;38546;48.170;11.724;2024-01-15T06:57:00;-0.40;99.90
3488;DHT22;38546;48.170;11.724;2024-01-15T06:59:31;-0.30;99.90
3488;DHT22;38546;48.170;11.724;2024-01-15T07:02:02;-0.30;99.90
3488;DHT22;38546;48.170;11.724;2024-01-15T07:04:33;-0.50;99.90
3488;DHT22;38546;48.170;11.724;2024-01-15T07:07:04;-0.40;99.90
3488;DHT22;38546;48.170;11.724;2024-01-15T07:09:34;-0.40;99.90
3488;DHT22;38546;48.170;11.724;2024-01-15T07:12:05;-0.40;99.90
3488;DHT22;38546;48.170;11.724;2024-01-15T07:14:36;-0.40;99.90
3488;DHT22;38546;48.170;11.724;2024-01-15T07:17:06;-0.30;99.90
3488;DHT22;38546;48.170;11.724;2024-01-15T07:19:37;-0.40;99.90
3488;DHT22;38546;48.170;11.724;2024-01-15T07:22:08;-0.30;99.90
3488;DHT22;38546;48.170;11.724;2024-01-15T07:24:38;-0.30;99.90
3488;DHT22;38546;48.170;11.724;2024-01-15T07:27:09;-0.40;99.90
3488;DHT22;38546;48.170;11.724;2024-01-15T07:29:40;-0.20;99.90
3488;DHT22;38546;48.170;11.724;2024-01-15T07:32:10;-0.20;99.90
3488;DHT22;38546;48.170;11.724;2024-01-15T07:34:41;-0.30;99.90
3488;DHT22;38546;48.170;11.724;2024-01-15T07:37:11;-0.30;99.90
3488;DHT22;38546;48.170;11.724;2024-01-15T07:39:42;-0.40;99.90
3488;DHT22;38546;48.170;11.724;2024-01-15T07:42:13;-0.30;99.90
3488;DHT22;38546;48.170;11.724;2024-01-15T07:44:43;-0.40;99.90
3488;DHT22;38546;48.170;11.724;2024-01-15T07:47:15;-0.30;99.90
3488;DHT22;38546;48.170;11.724;2024-01-15T07:49:45;-0.20;99.90
3488;DHT22;38546;48.170;11.724;2024-01-15T07:52:16;-0.30;99.90
3488;DHT22;38546;48.170;11.724;2024-01-15T07:54:47;-0.10;99.90
3488;DHT22;38546;48.170;11.724;2024-01-15T07:57:17;0.00;99.90
3488;DHT22;38546;48.170;11.724;2024-01-15T07:59:48;-0.10;99.90
3488;DHT22;38546;48.170;11.724;2024-01-15T08:02:19;-0.10;99.90
3488;DHT22;38546;48.170;11.724;2024-01-15T08:04:49;-0.10;99.90
3488;DHT22;38546;48.170;11.724;2024-01-15T08:07:20;-0.10;99.90
3488;DHT22;38546;48.170;11.724;2024-01-15T08:09:52;-0.20;99.90
3488;DHT22;38546;48.170;11.724;2024-01-15T08:12:23;-0.10;99.90
3488;DHT22;38546;48.170;11.724;2024-01-15T08:14:54;-0.10;99.90
3488;DHT22;38546;48.170;11.724;2024-01-15T08:17:24;0.00;99.90
3488;DHT22;38546;48.170;11.724;2024-01-15T08:19:58;0.10;99.90
3488;DHT22;38546;48.170;11.724;2024-01-15T08:22:30;0.00;99.90
3488;DHT22;38546;48.170;11.724;2024-01-15T08:25:01;0.00;99.90
3488;DHT22;38546;48.170;11.724;2024-01-15T08:27:32;0.00;99.90
3488;DHT22;38546;48.170;11.724;2024-01-15T08:30:03;0.10;99.90
3488;DHT22;38546;48.170;11.724;2024-01-15T08:32:34;0.10;99.90
3488;DHT22;38546;48.170;11.724;2024-01-15T08:35:11;0.20;99.90
3488;DHT22;38546;48.170;11.724;2024-01-15T08:37:42;0.20;99.90
3488;DHT22;38546;48.170;11.724;2024-01-15T08:40:12;0.20;99.90
3488;DHT22;38546;48.170;11.724;2024-01-15T08:42:43;0.30;99.90
3488;DHT22;38546;48.170;11.724;2024-01-15T08:45:15;0.20;99.90
3488;DHT22;38546;48.170;11.724;2024-01-15T08:47:46;0.20;99.90
3488;DHT22;38546;48.170;11.724;2024-01-15T08:50:17;0.30;99.90
3488;DHT22;38546;48.170;11.724;2024-01-15T08:52:47;0.10;99.90
3488;DHT22;38546;48.170;11.724;2024-01-15T08:55:18;0.20;99.90
3488;DHT22;38546;48.170;11.724;2024-01-15T08:57:49;0.30;99.90
3488;DHT22;38546;48.170;11.724;2024-01-15T09:00:21;0.20;99.90
3488;DHT22;38546;48.170;11.724;2024-01-15T09:02:51;0.20;99.90
3488;DHT22;38546;48.170;11.724;2024-01-15T09:05:22;0.30;99.90
3488;DHT22;38546;48.170;11.724;2024-01-15T09:07:53;0.40;99.90
3488;DHT22;38546;48.170;11.724;2024-01-15T09:10:24;0.60;99.90
3488;DHT22;38546;48.170;11.724;2024-01-15T09:12:55;0.50;99.90
3488;DHT22;38546;48.170;11.724;2024-01-15T09:15:25;0.50;99.90
3488;DHT22;38546;48.170;11.724;2024-01-15T09:17:56;0.60;99.90
3488;DHT22;38546;48.170;11.724;2024-01-15T09:20:29;0.50;99.90
3488;DHT22;38546;48.170;11.724;2024-01-15T09:22:59;0.40;99.90
3488;DHT22;38546;48.170;11.724;2024-01-15T09:25:30;0.50;99.90
3488;DHT22;38546;48.170;11.724;2024-01-15T09:28:01;0.50;99.90
3488;DHT22;38546;48.170;11.724;2024-01-15T09:30:32;0.50;99.90
3488;DHT22;38546;48.170;11.724;2024-01-15T09:33:03;0.50;99.90
3488;DHT22;38546;48.170;11.724;2024-01-15T09:35:34;0.60;99.90
3488;DHT22;38546;48.170;11.724;2024-01-15T09:38:04;0.50;99.90
3488;DHT22;38546;48.170;11.724;2024-01-15T09:40:38;0.60;99.90
3488;DHT22;38546;48.170;11.724;2024-01-15T09:43:10;0.70;99.90
3488;DHT22;38546;48.170;11.724;2024-01-15T09:45:42;0.60;99.90
3488;DHT22;38546;48.170;11.724;2024-01-15T09:48:13;0.80;99.90
3488;DHT22;38546;48.170;11.724;2024-01-15T09:50:46;0.70;99.90
3488;DHT22;38546;48.170;11.724;2024-01-15T09:53:17;0.70;99.90
3488;DHT22;38546;48.170;11.724;2024-01-15T09:55:50;0.70;99.90
3488;DHT22;38546;48.170;11.724;2024-01-15T09:58:20;0.80;99.90
3488;DHT22;38546;48.170;11.724;2024-01-15T10:00:52;0.80;99.90
3488;DHT22;38546;48.170;11.724;2024-01-15T10:03:23;0.80;99.90
3488;DHT22;38546;48.170;11.724;2024-01-15T10:05:54;0.80;99.90
3488;DHT22;38546;48.170;11.724;2024-01-15T10:08:25;0.90;99.90
3488;DHT22;38546;48.170;11.724;2024-01-15T10:10:56;0.90;99.90
3488;DHT22;38546;48.170;11.724;2024-01-15T10:13:28;1.00;99.90
3488;DHT22;38546;48.170;11.724;2024-01-15T10:16:00;1.00;99.90
3488;DHT22;38546;48.170;11.724;2024-01-15T10:18:33;1.00;99.90
3488;DHT22;38546;48.170;11.724;2024-01-15T10:21:04;1.00;99.90
3488;DHT22;38546;48.170;11.724;2024-01-15T10:23:37;0.90;99.90
3488;DHT22;38546;48.170;11.724;2024-01-15T10:26:08;1.00;99.90
3488;DHT22;38546;48.170;11.724;2024-01-15T10:28:38;0.90;99.90
3488;DHT22;38546;48.170;11.724;2024-01-15T10:31:09;1.00;99.90
3488;DHT22;38546;48.170;11.724;2024-01-15T10:33:40;1.00;99.90
3488;DHT22;38546;48.170;11.724;2024-01-15T10:36:11;1.10;99.90
3488;DHT22;38546;48.170;11.724;2024-01-15T10:38:44;1.10;99.90
3488;DHT22;38546;48.170;11.724;2024-01-15T10:41:15;1.00;99.90
3488;DHT22;38546;48.170;11.724;2024-01-15T10:43:46;1.10;99.90
3488;DHT22;38546;48.170;11.724;2024-01-15T10:46:17;1.10;99.90
3488;DHT22;38546;48.170;11.724;2024-01-15T10:48:47;1.30;99.90
3488;DHT22;38546;48.170;11.724;2024-01-15T10:51:18;1.30;99.90
3488;DHT22;38546;48.170;11.724;2024-01-15T10:53:49;1.40;99.90
3488;DHT22;38546;48.170;11.724;2024-01-15T10:56:22;1.40;99.90
3488;DHT22;38546;48.170;11.724;2024-01-15T10:58:54;1.30;99.90
3488;DHT22;38546;48.170;11.724;2024-01-15T11:01:25;1.20;99.90
3488;DHT22;38546;48.170;11.724;2024-01-15T11:03:56;1.20;99.90
3488;DHT22;38546;48.170;11.724;2024-01-15T11:06:28;1.30;99.90
3488;DHT22;38546;48.170;11.724;2024-01-15T11:08:59;1.40;99.90
3488;DHT22;38546;48.170;11.724;2024-01-15T11:11:30;1.50;99.90
3488;DHT22;38546;48.170;11.724;2024-01-15T11:14:06;1.30;99.90
3488;DHT22;38546;48.170;11.724;2024-01-15T11:16:56;1.30;99.90
3488;DHT22;38546;48.170;11.724;2024-01-15T11:19:46;1.20;99.90
3488;DHT22;38546;48.170;11.724;2024-01-15T11:24:10;1.30;99.90
3488;DHT22;38546;48.170;11.724;2024-01-15T11:27:09;1.30;99.90
3488;DHT22;38546;48.170;11.724;2024-01-15T11:29:40;1.50;99.90
3488;DHT22;38546;48.170;11.724;2024-01-15T11:32:11;1.40;99.90
3488;DHT22;38546;48.170;11.724;2024-01-15T11:34:56;1.50;99.90
3488;DHT22;38546;48.170;11.724;2024-01-15T11:40:38;1.50;99.90
3488;DHT22;38546;48.170;11.724;2024-01-15T11:43:09;1.40;99.90
3488;DHT22;38546;48.170;11.724;2024-01-15T11:45:39;1.20;99.90
3488;DHT22;38546;48.170;11.724;2024-01-15T11:48:17;1.10;99.90
3488;DHT22;38546;48.170;11.724;2024-01-15T11:50:49;0.90;99.90
3488;DHT22;38546;48.170;11.724;2024-01-15T11:53:37;0.80;99.90
3488;DHT22;38546;48.170;11.724;2024-01-15T11:56:15;0.80;99.90
3488;DHT22;38546;48.170;11.724;2024-01-15T11:58:49;0.90;99.90
3488;DHT22;38546;48.170;11.724;2024-01-15T12:01:21;1.00;99.90
3488;DHT22;38546;48.170;11.724;2024-01-15T12:03:52;1.20;99.90
3488;DHT22;38546;48.170;11.724;2024-01-15T12:06:22;1.20;99.90
3488;DHT22;38546;48.170;11.724;2024-01-15T12:09:06;1.20;99.90
3488;DHT22;38546;48.170;11.724;2024-01-15T12:11:39;1.30;99.90
3488;DHT22;38546;48.170;11.724;2024-01-15T12:14:13;1.30;99.90
3488;DHT22;38546;48.170;11.724;2024-01-15T12:16:44;1.40;99.90
3488;DHT22;38546;48.170;11.724;2024-01-15T12:19:15;1.20;99.90
3488;DHT22;38546;48.170;11.724;2024-01-15T12:21:46;1.20;99.90
3488;DHT22;38546;48.170;11.724;2024-01-15T12:24:18;1.20;99.90
3488;DHT22;38546;48.170;11.724;2024-01-15T12:26:49;1.30;99.90
3488;DHT22;38546;48.170;11.724;2024-01-15T12:29:19;1.40;99.90
3488;DHT22;38546;48.170;11.724;2024-01-15T12:31:51;1.60;99.90
3488;DHT22;38546;48.170;11.724;2024-01-15T12:34:23;1.90;99.90
3488;DHT22;38546;48.170;11.724;2024-01-15T12:36:57;2.00;99.90
3488;DHT22;38546;48.170;11.724;2024-01-15T12:39:28;2.10;99.90
3488;DHT22;38546;48.170;11.724;2024-01-15T12:41:59;2.20;99.90
3488;DHT22;38546;48.170;11.724;2024-01-15T12:44:29;2.10;99.90
3488;DHT22;38546;48.170;11.724;2024-01-15T12:47:00;1.90;99.90
3488;DHT22;38546;48.170;11.724;2024-01-15T12:49:31;1.90;99.90
3488;DHT22;38546;48.170;11.724;2024-01-15T12:52:03;2.00;99.90
3488;DHT22;38546;48.170;11.724;2024-01-15T12:54:34;2.10;99.90
3488;DHT22;38546;48.170;11.724;2024-01-15T12:57:05;2.20;99.90
3488;DHT22;38546;48.170;11.724;2024-01-15T12:59:35;2.40;99.90
3488;DHT22;38546;48.170;11.724;2024-01-15T13:02:06;2.50;99.90
3488;DHT22;38546;48.170;11.724;2024-01-15T13:04:37;2.50;99.90
3488;DHT22;38546;48.170;11.724;2024-01-15T13:07:09;2.40;99.90
3488;DHT22;38546;48.170;11.724;2024-01-15T13:09:39;2.60;99.90
3488;DHT22;38546;48.170;11.724;2024-01-15T13:12:10;2.60;99.90
3488;DHT22;38546;48.170;11.724;2024-01-15T13:14:42;2.60;99.90
3488;DHT22;38546;48.170;11.724;2024-01-15T13:17:12;2.50;99.90
3488;DHT22;38546;48.170;11.724;2024-01-15T13:19:45;2.50;99.90
3488;DHT22;38546;48.170;11.724;2024-01-15T13:22:15;2.40;99.90
3488;DHT22;38546;48.170;11.724;2024-01-15T13:24:46;2.30;99.90
3488;DHT22;38546;48.170;11.724;2024-01-15T13:27:17;2.40;99.90
3488;DHT22;38546;48.170;11.724;2024-01-15T13:29:48;2.20;99.90
3488;DHT22;38546;48.170;11.724;2024-01-15T13:32:24;2.20;99.90
3488;DHT22;38546;48.170;11.724;2024-01-15T13:34:59;2.10;99.90
3488;DHT22;38546;48.170;11.724;2024-01-15T13:37:30;2.20;99.90
3488;DHT22;38546;48.170;11.724;2024-01-15T13:40:01;2.20;99.90
3488;DHT22;38546;48.170;11.724;2024-01-15T13:42:31;2.10;99.90
3488;DHT22;38546;48.170;11.724;2024-01-15T13:45:02;2.00;99.90
3488;DHT22;38546;48.170;11.724;2024-01-15T13:47:36;2.00;99.90
3488;DHT22;38546;48.170;11.724;2024-01-15T13:50:08;2.00;99.90
3488;DHT22;38546;48.170;11.724;2024-01-15T13:52:39;2.00;99.90
3488;DHT22;38546;48.170;11.724;2024-01-15T13:55:10;2.00;99.90
3488;DHT22;38546;48.170;11.724;2024-01-15T13:57:41;2.20;99.90
3488;DHT22;38546;48.170;11.724;2024-01-15T14:00:13;2.10;99.90
3488;DHT22;38546;48.170;11.724;2024-01-15T14:02:48;2.10;99.90
3488;DHT22;38546;48.170;11.724;2024-01-15T14:05:19;2.00;99.90
3488;DHT22;38546;48.170;11.724;2024-01-15T14:07:50;2.10;99.90
3488;DHT22;38546;48.170;11.724;2024-01-15T14:10:21;2.00;99.90
3488;DHT22;38546;48.170;11.724;2024-01-15T14:12:51;2.10;99.90
3488;DHT22;38546;48.170;11.724;2024-01-15T14:15:22;2.10;99.90
3488;DHT22;38546;48.170;11.724;2024-01-15T14:17:53;1.90;99.90
3488;DHT22;38546;48.170;11.724;2024-01-15T14:20:23;1.90;99.90
3488;DHT22;38546;48.170;11.724;2024-01-15T14:22:54;1.80;99.90
3488;DHT22;38546;48.170;11.724;2024-01-15T14:25:25;1.90;99.90
3488;DHT22;38546;48.170;11.724;2024-01-15T14:27:56;1.90;99.90
3488;DHT22;38546;48.170;11.724;2024-01-15T14:30:26;1.90;99.90
3488;DHT22;38546;48.170;11.724;2024-01-15T14:32:57;1.70;99.90
3488;DHT22;38546;48.170;11.724;2024-01-15T14:35:28;1.40;99.90
3488;DHT22;38546;48.170;11.724;2024-01-15T14:37:59;1.40;99.90
3488;DHT22;38546;48.170;11.724;2024-01-15T14:40:29;1.30;99.90
3488;DHT22;38546;48.170;11.724;2024-01-15T14:43:00;1.30;99.90
3488;DHT22;38546;48.170;11.724;2024-01-15T14:45:30;1.30;99.90
3488;DHT22;38546;48.170;11.724;2024-01-15T14:48:01;1.20;99.90
3488;DHT22;38546;48.170;11.724;2024-01-15T14:50:32;1.20;99.90
3488;DHT22;38546;48.170;11.724;2024-01-15T14:53:03;1.30;99.90
3488;DHT22;38546;48.170;11.724;2024-01-15T14:55:34;1.20;99.90
3488;DHT22;38546;48.170;11.724;2024-01-15T14:58:05;1.20;99.90
3488;DHT22;38546;48.170;11.724;2024-01-15T15:00:35;1.10;99.90
3488;DHT22;38546;48.170;11.724;2024-01-15T15:03:06;1.10;99.90
3488;DHT22;38546;48.170;11.724;2024-01-15T15:05:36;1.10;99.90
3488;DHT22;38546;48.170;11.724;2024-01-15T15:08:07;1.20;99.90
3488;DHT22;38546;48.170;11.724;2024-01-15T15:10:39;1.30;99.90
3488;DHT22;38546;48.170;11.724;2024-01-15T15:13:10;1.20;99.90
3488;DHT22;38546;48.170;11.724;2024-01-15T15:15:41;1.10;99.90
3488;DHT22;38546;48.170;11.724;2024-01-15T15:18:12;1.10;99.90
3488;DHT22;38546;48.170;11.724;2024-01-15T15:20:42;1.00;99.90
3488;DHT22;38546;48.170;11.724;2024-01-15T15:23:13;1.00;99.90
3488;DHT22;38546;48.170;11.724;2024-01-15T15:25:44;0.90;99.90
3488;DHT22;38546;48.170;11.724;2024-01-15T15:28:15;0.90;99.90
3488;DHT22;38546;48.170;11.724;2024-01-15T15:30:46;1.10;99.90
3488;DHT22;38546;48.170;11.724;2024-01-15T15:33:17;1.00;99.90
3488;DHT22;38546;48.170;11.724;2024-01-15T15:35:49;1.00;99.90
3488;DHT22;38546;48.170;11.724;2024-01-15T15:38:21;1.10;99.90
3488;DHT22;38546;48.170;11.724;2024-01-15T15:40:53;1.00;99.90
3488;DHT22;38546;48.170;11.724;2024-01-15T15:43:23;1.00;99.90
3488;DHT22;38546;48.170;11.724;2024-01-15T15:45:54;1.00;99.90
3488;DHT22;38546;48.170;11.724;2024-01-15T15:48:25;1.00;99.90
3488;DHT22;38546;48.170;11.724;2024-01-15T15:50:56;0.90;99.90
3488;DHT22;38546;48.170;11.724;2024-01-15T15:53:29;1.00;99.90
3488;DHT22;38546;48.170;11.724;2024-01-15T15:56:00;1.00;99.90
3488;DHT22;38546;48.170;11.724;2024-01-15T15:58:31;1.10;99.90
3488;DHT22;38546;48.170;11.724;2024-01-15T16:01:03;1.00;99.90
3488;DHT22;38546;48.170;11.724;2024-01-15T16:03:34;1.10;99.90
3488;DHT22;38546;48.170;11.724;2024-01-15T16:06:04;1.10;99.90
3488;DHT22;38546;48.170;11.724;2024-01-15T16:08:35;1.10;99.90
3488;DHT22;38546;48.170;11.724;2024-01-15T16:11:06;1.30;99.90